N142RC MDJB-MDJB
Flight info
| Callsign | N142RC |
|---|---|
| Flight time | 0h 12m |
| Altitude | 4000 |
| Route | VFR |
| Aircraft | B429/L-SFG/C |
Departure
| Time | 2026-04-18 03:07 |
|---|---|
| Airport | La Isabela International Airport (MDJB) |
Arrival
| Time | 2026-04-18 03:19 |
|---|---|
| Airport | La Isabela International Airport (MDJB) |
| Time | Latitude | Longitude | Altitude | Speed | Heading |
|---|---|---|---|---|---|
| 2026-04-18 02:24 | 19.86910 | -70.81592 | 146 ft | 0 kts | 124° |
| 2026-04-18 02:25 | 19.86910 | -70.81593 | 146 ft | 0 kts | 124° |
| 2026-04-18 02:26 | 19.86907 | -70.81599 | 151 ft | 3 kts | 121° |
| 2026-04-18 02:27 | 19.86802 | -70.81316 | 276 ft | 96 kts | 109° |
| 2026-04-18 02:27 | 19.86453 | -70.80441 | 721 ft | 143 kts | 116° |
| 2026-04-18 02:27 | 19.85693 | -70.79774 | 1437 ft | 146 kts | 153° |
| 2026-04-18 02:27 | 19.84706 | -70.79460 | 2023 ft | 144 kts | 160° |
| 2026-04-18 02:28 | 19.83764 | -70.79136 | 2641 ft | 142 kts | 159° |
| 2026-04-18 02:28 | 19.82803 | -70.78784 | 3055 ft | 150 kts | 158° |
| 2026-04-18 02:28 | 19.81821 | -70.78408 | 3360 ft | 150 kts | 157° |
| 2026-04-18 02:28 | 19.81218 | -70.78156 | 3464 ft | 155 kts | 154° |
| 2026-04-18 02:29 | 19.80183 | -70.77795 | 3450 ft | 158 kts | 165° |
| 2026-04-18 02:29 | 19.79109 | -70.77560 | 3438 ft | 157 kts | 165° |
| 2026-04-18 02:29 | 19.78050 | -70.77282 | 3411 ft | 155 kts | 162° |
| 2026-04-18 02:29 | 19.77029 | -70.76950 | 3395 ft | 152 kts | 159° |
| 2026-04-18 02:30 | 19.76034 | -70.76574 | 3409 ft | 152 kts | 157° |
| 2026-04-18 02:30 | 19.75050 | -70.76165 | 3422 ft | 152 kts | 155° |
| 2026-04-18 02:30 | 19.74083 | -70.75740 | 3427 ft | 152 kts | 155° |
| 2026-04-18 02:30 | 19.73113 | -70.75297 | 3428 ft | 152 kts | 154° |
| 2026-04-18 02:31 | 19.72147 | -70.74845 | 3427 ft | 152 kts | 154° |
| 2026-04-18 02:31 | 19.71180 | -70.74388 | 3427 ft | 152 kts | 153° |
| 2026-04-18 02:31 | 19.70213 | -70.73928 | 3427 ft | 152 kts | 153° |
| 2026-04-18 02:31 | 19.69248 | -70.73468 | 3427 ft | 152 kts | 153° |
| 2026-04-18 02:32 | 19.68284 | -70.73009 | 3426 ft | 153 kts | 154° |
| 2026-04-18 02:32 | 19.67314 | -70.72545 | 3426 ft | 153 kts | 154° |
| 2026-04-18 02:32 | 19.66344 | -70.72085 | 3426 ft | 153 kts | 154° |
| 2026-04-18 02:32 | 19.65372 | -70.71626 | 3427 ft | 153 kts | 154° |
| 2026-04-18 02:33 | 19.64404 | -70.71172 | 3427 ft | 153 kts | 154° |
| 2026-04-18 02:33 | 19.63449 | -70.70728 | 3520 ft | 149 kts | 154° |
| 2026-04-18 02:33 | 19.62504 | -70.70293 | 3737 ft | 147 kts | 154° |
| 2026-04-18 02:33 | 19.61568 | -70.69866 | 3980 ft | 146 kts | 154° |
| 2026-04-18 02:34 | 19.60632 | -70.69442 | 4182 ft | 148 kts | 154° |
| 2026-04-18 02:34 | 19.59673 | -70.69008 | 4229 ft | 151 kts | 154° |
| 2026-04-18 02:34 | 19.58706 | -70.68570 | 4237 ft | 151 kts | 154° |
| 2026-04-18 02:34 | 19.57736 | -70.68132 | 4238 ft | 151 kts | 154° |
| 2026-04-18 02:35 | 19.56765 | -70.67694 | 4239 ft | 151 kts | 154° |
| 2026-04-18 02:35 | 19.55796 | -70.67257 | 4239 ft | 151 kts | 154° |
| 2026-04-18 02:35 | 19.54823 | -70.66819 | 4228 ft | 153 kts | 154° |
| 2026-04-18 02:35 | 19.53842 | -70.66376 | 3993 ft | 157 kts | 154° |
| 2026-04-18 02:36 | 19.52835 | -70.65921 | 3664 ft | 158 kts | 155° |
| 2026-04-18 02:36 | 19.51818 | -70.65460 | 3318 ft | 159 kts | 155° |
| 2026-04-18 02:36 | 19.50806 | -70.65001 | 3037 ft | 158 kts | 155° |
| 2026-04-18 02:36 | 19.49794 | -70.64540 | 2783 ft | 158 kts | 155° |
| 2026-04-18 02:37 | 19.48780 | -70.64078 | 2533 ft | 159 kts | 155° |
| 2026-04-18 02:37 | 19.47776 | -70.63609 | 2383 ft | 157 kts | 155° |
| 2026-04-18 02:37 | 19.46770 | -70.63153 | 2251 ft | 156 kts | 156° |
| 2026-04-18 02:37 | 19.45804 | -70.62732 | 1914 ft | 143 kts | 156° |
| 2026-04-18 02:38 | 19.44909 | -70.62375 | 1583 ft | 135 kts | 158° |
| 2026-04-18 02:38 | 19.44053 | -70.62052 | 1447 ft | 127 kts | 157° |
| 2026-04-18 02:38 | 19.43250 | -70.61698 | 1361 ft | 125 kts | 155° |
| 2026-04-18 02:38 | 19.42454 | -70.61332 | 1208 ft | 125 kts | 154° |
| 2026-04-18 02:39 | 19.41760 | -70.60899 | 1123 ft | 104 kts | 129° |
| 2026-04-18 02:39 | 19.41340 | -70.60427 | 1179 ft | 64 kts | 149° |
| 2026-04-18 02:39 | 19.41065 | -70.60400 | 1129 ft | 27 kts | 180° |
| 2026-04-18 02:39 | 19.40837 | -70.60408 | 918 ft | 42 kts | 174° |
| 2026-04-18 02:40 | 19.40535 | -70.60384 | 696 ft | 43 kts | 168° |
| 2026-04-18 02:40 | 19.40425 | -70.60385 | 586 ft | 7 kts | 186° |
| 2026-04-18 02:40 | 19.40366 | -70.60390 | 580 ft | 4 kts | 192° |
| 2026-04-18 02:40 | 19.40363 | -70.60391 | 585 ft | 4 kts | 193° |
| 2026-04-18 02:41 | 19.40356 | -70.60394 | 568 ft | 7 kts | 199° |
| 2026-04-18 02:41 | 19.40360 | -70.60393 | 569 ft | 0 kts | 199° |
| 2026-04-18 02:49 | 19.40361 | -70.60393 | 569 ft | 0 kts | 199° |
| 2026-04-18 02:50 | 19.40362 | -70.60392 | 572 ft | 2 kts | 207° |
| 2026-04-18 02:50 | 19.40382 | -70.60384 | 573 ft | 5 kts | 260° |
| 2026-04-18 02:50 | 19.40512 | -70.60533 | 627 ft | 73 kts | 294° |
| 2026-04-18 02:51 | 19.40071 | -70.61007 | 1082 ft | 129 kts | 186° |
| 2026-04-18 02:51 | 19.39117 | -70.60752 | 1389 ft | 155 kts | 152° |
| 2026-04-18 02:51 | 19.38234 | -70.60111 | 1617 ft | 156 kts | 144° |
| 2026-04-18 02:51 | 19.37358 | -70.59469 | 1936 ft | 151 kts | 145° |
| 2026-04-18 02:52 | 19.36480 | -70.58847 | 2153 ft | 156 kts | 145° |
| 2026-04-18 02:52 | 19.35554 | -70.58198 | 2073 ft | 159 kts | 146° |
| 2026-04-18 02:52 | 19.34631 | -70.57556 | 2078 ft | 158 kts | 146° |
| 2026-04-18 02:52 | 19.33709 | -70.56918 | 2095 ft | 158 kts | 146° |
| 2026-04-18 02:53 | 19.32785 | -70.56282 | 2099 ft | 159 kts | 146° |
| 2026-04-18 02:53 | 19.31857 | -70.55649 | 2100 ft | 159 kts | 146° |
| 2026-04-18 02:53 | 19.30939 | -70.55022 | 2100 ft | 159 kts | 146° |
| 2026-04-18 02:53 | 19.30007 | -70.54386 | 2100 ft | 158 kts | 145° |
| 2026-04-18 02:54 | 19.29077 | -70.53762 | 2100 ft | 158 kts | 145° |
| 2026-04-18 02:54 | 19.28147 | -70.53135 | 2100 ft | 158 kts | 145° |
| 2026-04-18 02:54 | 19.27222 | -70.52505 | 2100 ft | 158 kts | 145° |
| 2026-04-18 02:54 | 19.26296 | -70.51869 | 2101 ft | 158 kts | 144° |
| 2026-04-18 02:55 | 19.25378 | -70.51233 | 2101 ft | 158 kts | 144° |
| 2026-04-18 02:55 | 19.24457 | -70.50594 | 2101 ft | 158 kts | 144° |
| 2026-04-18 02:55 | 19.23533 | -70.49950 | 2101 ft | 158 kts | 144° |
| 2026-04-18 02:55 | 19.22614 | -70.49306 | 2101 ft | 158 kts | 144° |
| 2026-04-18 02:56 | 19.21694 | -70.48663 | 2101 ft | 158 kts | 144° |
| 2026-04-18 02:56 | 19.20772 | -70.48020 | 2101 ft | 158 kts | 144° |
| 2026-04-18 02:56 | 19.18939 | -70.46743 | 2101 ft | 158 kts | 144° |
| 2026-04-18 02:57 | 19.18020 | -70.46104 | 2102 ft | 158 kts | 144° |
| 2026-04-18 02:57 | 19.17099 | -70.45463 | 2102 ft | 158 kts | 144° |
| 2026-04-18 02:57 | 19.16181 | -70.44826 | 2102 ft | 158 kts | 144° |
| 2026-04-18 02:57 | 19.15261 | -70.44186 | 2102 ft | 157 kts | 144° |
| 2026-04-18 02:58 | 19.14351 | -70.43551 | 2102 ft | 157 kts | 144° |
| 2026-04-18 02:58 | 19.13437 | -70.42915 | 2102 ft | 157 kts | 144° |
| 2026-04-18 02:58 | 19.12826 | -70.42492 | 2102 ft | 158 kts | 144° |
| 2026-04-18 02:58 | 19.11908 | -70.41857 | 2102 ft | 158 kts | 144° |
| 2026-04-18 02:59 | 19.10989 | -70.41221 | 2102 ft | 158 kts | 144° |
| 2026-04-18 02:59 | 19.09773 | -70.40380 | 2103 ft | 158 kts | 144° |
| 2026-04-18 02:59 | 19.09151 | -70.39950 | 2103 ft | 158 kts | 144° |
| 2026-04-18 02:59 | 19.08251 | -70.39327 | 2103 ft | 158 kts | 144° |
| 2026-04-18 03:00 | 19.07317 | -70.38680 | 2103 ft | 158 kts | 144° |
| 2026-04-18 03:00 | 19.06402 | -70.38046 | 2103 ft | 158 kts | 144° |
| 2026-04-18 03:00 | 19.05484 | -70.37412 | 2103 ft | 158 kts | 144° |
| 2026-04-18 03:00 | 19.04565 | -70.36775 | 2103 ft | 158 kts | 144° |
| 2026-04-18 03:01 | 19.03659 | -70.36146 | 2103 ft | 158 kts | 144° |
| 2026-04-18 03:01 | 19.02691 | -70.35599 | 2085 ft | 160 kts | 162° |
| 2026-04-18 03:01 | 19.01582 | -70.35585 | 2094 ft | 160 kts | 178° |
| 2026-04-18 03:01 | 19.00477 | -70.35436 | 2101 ft | 160 kts | 168° |
| 2026-04-18 03:02 | 18.99413 | -70.35110 | 2101 ft | 159 kts | 160° |
| 2026-04-18 03:02 | 18.98309 | -70.35086 | 2093 ft | 160 kts | 186° |
| 2026-04-18 03:02 | 18.97226 | -70.35341 | 2101 ft | 159 kts | 193° |
| 2026-04-18 03:02 | 18.96162 | -70.35650 | 2104 ft | 159 kts | 195° |
| 2026-04-18 03:03 | 18.95090 | -70.35975 | 2104 ft | 159 kts | 195° |
| 2026-04-18 03:03 | 18.94028 | -70.36297 | 2104 ft | 159 kts | 195° |
| 2026-04-18 03:03 | 18.92965 | -70.36620 | 2104 ft | 159 kts | 195° |
| 2026-04-18 03:03 | 18.91906 | -70.36942 | 2104 ft | 159 kts | 195° |
| 2026-04-18 03:04 | 18.90836 | -70.37265 | 2104 ft | 159 kts | 195° |
| 2026-04-18 03:04 | 18.89755 | -70.37277 | 2087 ft | 156 kts | 167° |
| 2026-04-18 03:04 | 18.88778 | -70.36793 | 2086 ft | 155 kts | 143° |
| 2026-04-18 03:04 | 18.88012 | -70.36012 | 2101 ft | 156 kts | 134° |
| 2026-04-18 03:05 | 18.87228 | -70.35204 | 2104 ft | 156 kts | 135° |
| 2026-04-18 03:05 | 18.86445 | -70.34409 | 2105 ft | 156 kts | 135° |
| 2026-04-18 03:05 | 18.85662 | -70.33617 | 2105 ft | 156 kts | 135° |
| 2026-04-18 03:05 | 18.84888 | -70.32834 | 2105 ft | 156 kts | 135° |
| 2026-04-18 03:06 | 18.84102 | -70.32041 | 2105 ft | 156 kts | 135° |
| 2026-04-18 03:06 | 18.83319 | -70.31250 | 2105 ft | 156 kts | 135° |
| 2026-04-18 03:06 | 18.82541 | -70.30464 | 2105 ft | 154 kts | 135° |
| 2026-04-18 03:06 | 18.81763 | -70.29677 | 2106 ft | 154 kts | 135° |
| 2026-04-18 03:07 | 18.80990 | -70.28897 | 2106 ft | 154 kts | 135° |
| 2026-04-18 03:07 | 18.80210 | -70.28117 | 2105 ft | 154 kts | 136° |
| 2026-04-18 03:07 | 18.79373 | -70.27436 | 2105 ft | 154 kts | 143° |
| 2026-04-18 03:07 | 18.78486 | -70.26795 | 2106 ft | 154 kts | 144° |
| 2026-04-18 03:08 | 18.77595 | -70.26166 | 2106 ft | 154 kts | 145° |
| 2026-04-18 03:08 | 18.76702 | -70.25539 | 2106 ft | 154 kts | 145° |
| 2026-04-18 03:08 | 18.75809 | -70.24913 | 2106 ft | 154 kts | 145° |
| 2026-04-18 03:08 | 18.74916 | -70.24287 | 2107 ft | 154 kts | 145° |
| 2026-04-18 03:09 | 18.74020 | -70.23660 | 2107 ft | 154 kts | 145° |
| 2026-04-18 03:09 | 18.73129 | -70.23036 | 2107 ft | 154 kts | 145° |
| 2026-04-18 03:09 | 18.72237 | -70.22410 | 2107 ft | 154 kts | 145° |
| 2026-04-18 03:09 | 18.71340 | -70.21783 | 2107 ft | 154 kts | 145° |
| 2026-04-18 03:10 | 18.70445 | -70.21159 | 2107 ft | 154 kts | 145° |
| 2026-04-18 03:10 | 18.69552 | -70.20536 | 2107 ft | 154 kts | 145° |
| 2026-04-18 03:10 | 18.68666 | -70.19916 | 2107 ft | 154 kts | 145° |
| 2026-04-18 03:10 | 18.67774 | -70.19292 | 2107 ft | 154 kts | 145° |
| 2026-04-18 03:11 | 18.66880 | -70.18666 | 2108 ft | 154 kts | 145° |
| 2026-04-18 03:11 | 18.65987 | -70.18040 | 2108 ft | 154 kts | 145° |
| 2026-04-18 03:11 | 18.65090 | -70.17412 | 2108 ft | 154 kts | 145° |
| 2026-04-18 03:11 | 18.64200 | -70.16789 | 2108 ft | 154 kts | 145° |
| 2026-04-18 03:12 | 18.63306 | -70.16163 | 2108 ft | 154 kts | 145° |
| 2026-04-18 03:12 | 18.62409 | -70.15534 | 2108 ft | 154 kts | 145° |
| 2026-04-18 03:12 | 18.61514 | -70.14904 | 2108 ft | 154 kts | 145° |
| 2026-04-18 03:12 | 18.60624 | -70.14277 | 2108 ft | 154 kts | 145° |
| 2026-04-18 03:13 | 18.59740 | -70.13655 | 2108 ft | 154 kts | 145° |
| 2026-04-18 03:13 | 18.58846 | -70.13027 | 2109 ft | 154 kts | 145° |
| 2026-04-18 03:13 | 18.57950 | -70.12396 | 2109 ft | 154 kts | 145° |
| 2026-04-18 03:13 | 18.57059 | -70.11769 | 2109 ft | 154 kts | 145° |
| 2026-04-18 03:14 | 18.56178 | -70.11150 | 2109 ft | 154 kts | 145° |
| 2026-04-18 03:14 | 18.55269 | -70.10511 | 2109 ft | 154 kts | 145° |
| 2026-04-18 03:14 | 18.54376 | -70.09883 | 2109 ft | 154 kts | 145° |
| 2026-04-18 03:14 | 18.53485 | -70.09256 | 2109 ft | 154 kts | 145° |
| 2026-04-18 03:15 | 18.52607 | -70.08639 | 2109 ft | 154 kts | 145° |
| 2026-04-18 03:15 | 18.51723 | -70.08011 | 2109 ft | 154 kts | 145° |
| 2026-04-18 03:15 | 18.50810 | -70.07368 | 2110 ft | 154 kts | 145° |
| 2026-04-18 03:15 | 18.49917 | -70.06739 | 2110 ft | 154 kts | 145° |
| 2026-04-18 03:16 | 18.49024 | -70.06109 | 2110 ft | 154 kts | 145° |
| 2026-04-18 03:16 | 18.48130 | -70.05479 | 2110 ft | 154 kts | 145° |
| 2026-04-18 03:16 | 18.47246 | -70.04855 | 2110 ft | 154 kts | 145° |
| 2026-04-18 03:16 | 18.46373 | -70.04191 | 2107 ft | 154 kts | 141° |
| 2026-04-18 03:17 | 18.45557 | -70.03437 | 2022 ft | 156 kts | 136° |
| 2026-04-18 03:17 | 18.44786 | -70.02662 | 1983 ft | 154 kts | 135° |
| 2026-04-18 03:17 | 18.44027 | -70.01905 | 1823 ft | 148 kts | 136° |
| 2026-04-18 03:17 | 18.43263 | -70.01156 | 1639 ft | 150 kts | 136° |
| 2026-04-18 03:18 | 18.42482 | -70.00399 | 1443 ft | 152 kts | 137° |
| 2026-04-18 03:18 | 18.41905 | -69.99481 | 1130 ft | 152 kts | 103° |
| 2026-04-18 03:18 | 18.42075 | -69.98421 | 877 ft | 143 kts | 71° |
| 2026-04-18 03:18 | 18.42410 | -69.97501 | 584 ft | 129 kts | 66° |
| 2026-04-18 03:19 | 18.42711 | -69.96686 | 478 ft | 109 kts | 71° |
| 2026-04-18 03:19 | 18.42920 | -69.95976 | 415 ft | 94 kts | 72° |
| 2026-04-18 03:19 | 18.43112 | -69.95376 | 337 ft | 79 kts | 70° |
| 2026-04-18 03:19 | 18.43247 | -69.94993 | 355 ft | 32 kts | 70° |
| 2026-04-18 03:20 | 18.43308 | -69.94825 | 166 ft | 21 kts | 69° |
| 2026-04-18 03:20 | 18.43334 | -69.94725 | 64 ft | 4 kts | 93° |
| 2026-04-18 03:20 | 18.43337 | -69.94713 | 54 ft | 2 kts | 135° |
| 2026-04-18 03:20 | 18.43334 | -69.94709 | 52 ft | 0 kts | 169° |
| 2026-04-18 03:22 | 18.43330 | -69.94708 | 54 ft | 7 kts | 176° |
| 2026-04-18 03:23 | 18.43340 | -69.94477 | 233 ft | 92 kts | 47° |
| 2026-04-18 03:23 | 18.44219 | -69.94528 | 450 ft | 150 kts | 346° |
| 2026-04-18 03:23 | 18.45240 | -69.94782 | 936 ft | 152 kts | 347° |
| 2026-04-18 03:23 | 18.46284 | -69.95041 | 1245 ft | 155 kts | 345° |
| 2026-04-18 03:24 | 18.47348 | -69.95303 | 1302 ft | 160 kts | 347° |
| 2026-04-18 03:24 | 18.48427 | -69.95563 | 1384 ft | 158 kts | 346° |
| 2026-04-18 03:24 | 18.49491 | -69.95833 | 1393 ft | 161 kts | 346° |
| 2026-04-18 03:24 | 18.50572 | -69.96109 | 1455 ft | 156 kts | 346° |
| 2026-04-18 03:25 | 18.51649 | -69.96386 | 1397 ft | 160 kts | 346° |
| 2026-04-18 03:25 | 18.52696 | -69.96653 | 1247 ft | 147 kts | 347° |
| 2026-04-18 03:25 | 18.53352 | -69.96811 | 990 ft | 135 kts | 347° |
| 2026-04-18 03:25 | 18.54217 | -69.97019 | 701 ft | 123 kts | 342° |
| 2026-04-18 03:26 | 18.54996 | -69.97379 | 529 ft | 119 kts | 335° |
| 2026-04-18 03:26 | 18.55722 | -69.97742 | 408 ft | 113 kts | 335° |
| 2026-04-18 03:26 | 18.56371 | -69.98068 | 453 ft | 97 kts | 335° |
| 2026-04-18 03:26 | 18.56978 | -69.98320 | 406 ft | 77 kts | 343° |
| 2026-04-18 03:27 | 18.57356 | -69.98380 | 441 ft | 37 kts | 7° |
| 2026-04-18 03:27 | 18.57562 | -69.98361 | 314 ft | 25 kts | 9° |
| 2026-04-18 03:27 | 18.57709 | -69.98345 | 226 ft | 18 kts | 13° |
| 2026-04-18 03:27 | 18.57822 | -69.98341 | 127 ft | 13 kts | 14° |
| 2026-04-18 03:28 | 18.57872 | -69.98307 | 93 ft | 4 kts | 53° |
| 2026-04-18 03:28 | 18.57875 | -69.98261 | 91 ft | 5 kts | 92° |
| 2026-04-18 03:28 | 18.57875 | -69.98249 | 82 ft | 0 kts | 117° |